^^
Meteo Knjazevac Station Historical Data
Daily Summary for May 14, 2021 Units:  Both    English   Metric
Daily Weekly Monthly Yearly Custom
  High: Low: Average:
Temperature: 54.9 °F /  12.7 °C 50.5 °F /  10.3 °C 52.9 °F /  11.6 °C
Dew Point: 49.8 °F /  9.9 °C 46.9 °F /  8.3 °C 48.2 °F /  9 °C
Humidity: 88% 81% 84%
Wind Speed: 5mph /  8km/h - 2.1mph /  3.4km/h
Wind Gust: 9mph /  14.5km/h - -
Wind- - SSE
Pressure: 29.87 in /  1011.4 hPa 29.84 in /  1010.4 hPa -
Precipitation: 0.00 in /  0 mm    
Historical Graphs
 
 
Tabular Data for May 14, 2021
Time Temperature Dew Point Pressure Wind Wind Speed Wind Gust Humidity Rainfall Rate (Hourly) solar Conditions
00:00 54.1 °F /  12.3 °C 49.7 °F /  9.8 °C 29.84in /  1010.4hPa West 5mph /  8km/h 8mph /  12.9km/h 85% 0.00in /  0mm 0 W/m2
00:10 54.4 °F /  12.4 °C 49.7 °F /  9.8 °C 29.84in /  1010.4hPa West 5mph /  8km/h 8mph /  12.9km/h 84% 0.00in /  0mm 0 W/m2
00:20 54.9 °F /  12.7 °C 49.8 °F /  9.9 °C 29.84in /  1010.4hPa WSW 3mph /  4.8km/h 9mph /  14.5km/h 83% 0.00in /  0mm 0 W/m2
00:30 54.9 °F /  12.7 °C 49.8 °F /  9.9 °C 29.84in /  1010.4hPa West 2mph /  3.2km/h 6mph /  9.7km/h 83% 0.00in /  0mm 0 W/m2
00:40 54.9 °F /  12.7 °C 49.8 °F /  9.9 °C 29.84in /  1010.4hPa West 5mph /  8km/h 7mph /  11.3km/h 83% 0.00in /  0mm 0 W/m2
00:50 54.9 °F /  12.7 °C 49.1 °F /  9.5 °C 29.84in /  1010.4hPa WNW 3mph /  4.8km/h 6mph /  9.7km/h 81% 0.00in /  0mm 0 W/m2
01:00 54.9 °F /  12.7 °C 49.1 °F /  9.5 °C 29.84in /  1010.4hPa NW 3mph /  4.8km/h 5mph /  8km/h 81% 0.00in /  0mm 0 W/m2
01:10 54.3 °F /  12.4 °C 49.3 °F /  9.6 °C 29.84in /  1010.4hPa NNE 1mph /  1.6km/h 5mph /  8km/h 83% 0.00in /  0mm 0 W/m2
01:20 54 °F /  12.2 °C 49.2 °F /  9.6 °C 29.84in /  1010.4hPa Calm   3mph /  4.8km/h 84% 0.00in /  0mm 0 W/m2
01:30 53.8 °F /  12.1 °C 49.1 °F /  9.5 °C 29.84in /  1010.4hPa WNW 3mph /  4.8km/h 7mph /  11.3km/h 84% 0.00in /  0mm 0 W/m2
01:40 54.1 °F /  12.3 °C 49 °F /  9.4 °C 29.84in /  1010.4hPa WSW 2mph /  3.2km/h 7mph /  11.3km/h 83% 0.00in /  0mm 0 W/m2
01:50 54.1 °F /  12.3 °C 48.4 °F /  9.1 °C 29.84in /  1010.4hPa SW 3mph /  4.8km/h 6mph /  9.7km/h 81% 0.00in /  0mm 0 W/m2
02:00 54.3 °F /  12.4 °C 48.6 °F /  9.2 °C 29.84in /  1010.4hPa WSW 1mph /  1.6km/h 7mph /  11.3km/h 81% 0.00in /  0mm 0 W/m2
02:10 54.1 °F /  12.3 °C 48.4 °F /  9.1 °C 29.84in /  1010.4hPa West 2mph /  3.2km/h 7mph /  11.3km/h 81% 0.00in /  0mm 0 W/m2
02:20 54.1 °F /  12.3 °C 48.4 °F /  9.1 °C 29.84in /  1010.4hPa SW 3mph /  4.8km/h 7mph /  11.3km/h 81% 0.00in /  0mm 0 W/m2
02:30 54.1 °F /  12.3 °C 48.4 °F /  9.1 °C 29.84in /  1010.4hPa WSW 1mph /  1.6km/h 5mph /  8km/h 81% 0.00in /  0mm 0 W/m2
02:40 54 °F /  12.2 °C 48.3 °F /  9.1 °C 29.84in /  1010.4hPa North 2mph /  3.2km/h 3mph /  4.8km/h 81% 0.00in /  0mm 0 W/m2
02:50 53.6 °F /  12 °C 48.6 °F /  9.2 °C 29.84in /  1010.4hPa NNE 2mph /  3.2km/h 7mph /  11.3km/h 83% 0.00in /  0mm 0 W/m2
03:00 53.1 °F /  11.7 °C 48.1 °F /  8.9 °C 29.85in /  1010.7hPa Calm   3mph /  4.8km/h 83% 0.00in /  0mm 0 W/m2
03:10 52.9 °F /  11.6 °C 48.2 °F /  9 °C 29.85in /  1010.7hPa Calm   3mph /  4.8km/h 84% 0.00in /  0mm 0 W/m2
03:20 52.7 °F /  11.5 °C 48 °F /  8.9 °C 29.85in /  1010.7hPa NE 1mph /  1.6km/h 8mph /  12.9km/h 84% 0.00in /  0mm 0 W/m2
03:30 52.5 °F /  11.4 °C 47.8 °F /  8.8 °C 29.85in /  1010.7hPa NNE 2mph /  3.2km/h 5mph /  8km/h 84% 0.00in /  0mm 0 W/m2
03:40 52.2 °F /  11.2 °C 47.8 °F /  8.8 °C 29.85in /  1010.7hPa NNE 1mph /  1.6km/h 3mph /  4.8km/h 85% 0.00in /  0mm 0 W/m2
03:50 52 °F /  11.1 °C 47.6 °F /  8.7 °C 29.85in /  1010.7hPa NNE 3mph /  4.8km/h 5mph /  8km/h 85% 0.00in /  0mm 0 W/m2
04:00 51.8 °F /  11 °C 47.4 °F /  8.6 °C 29.85in /  1010.7hPa North 2mph /  3.2km/h 4mph /  6.4km/h 85% 0.00in /  0mm 0 W/m2
04:10 51.6 °F /  10.9 °C 47.3 °F /  8.5 °C 29.85in /  1010.7hPa NNE 1mph /  1.6km/h 3mph /  4.8km/h 85% 0.00in /  0mm 0 W/m2
04:20 51.4 °F /  10.8 °C 47.4 °F /  8.6 °C 29.85in /  1010.7hPa NE 2mph /  3.2km/h 6mph /  9.7km/h 86% 0.00in /  0mm 0 W/m2
04:30 51.3 °F /  10.7 °C 47.3 °F /  8.5 °C 29.85in /  1010.7hPa ENE 1mph /  1.6km/h 3mph /  4.8km/h 86% 0.00in /  0mm 0 W/m2
04:40 51.3 °F /  10.7 °C 47.2 °F /  8.4 °C 29.86in /  1011.1hPa Calm   4mph /  6.4km/h 86% 0.00in /  0mm 0 W/m2
04:50 51.1 °F /  10.6 °C 47 °F /  8.3 °C 29.86in /  1011.1hPa NE 3mph /  4.8km/h 5mph /  8km/h 86% 0.00in /  0mm 0 W/m2
05:00 50.9 °F /  10.5 °C 46.9 °F /  8.3 °C 29.86in /  1011.1hPa NE 1mph /  1.6km/h 5mph /  8km/h 86% 0.00in /  0mm 0 W/m2
05:10 50.7 °F /  10.4 °C 47.3 °F /  8.5 °C 29.86in /  1011.1hPa NE 5mph /  8km/h 7mph /  11.3km/h 88% 0.00in /  0mm 4 W/m2
05:20 50.5 °F /  10.3 °C 47.1 °F /  8.4 °C 29.86in /  1011.1hPa NE 1mph /  1.6km/h 5mph /  8km/h 88% 0.00in /  0mm 11 W/m2
05:30 50.5 °F /  10.3 °C 47.1 °F /  8.4 °C 29.87in /  1011.4hPa Calm   3mph /  4.8km/h 88% 0.00in /  0mm 19 W/m2
05:40 50.5 °F /  10.3 °C 47.1 °F /  8.4 °C 29.87in /  1011.4hPa ENE 1mph /  1.6km/h 5mph /  8km/h 88% 0.00in /  0mm 25 W/m2
05:50 50.7 °F /  10.4 °C 47.3 °F /  8.5 °C 29.86in /  1011.1hPa ENE 5mph /  8km/h 7mph /  11.3km/h 88% 0.00in /  0mm 32 W/m2
Knjazevac, Serbia
Compliments of Weather Underground - 2 mb